Bookmark and Share
Track history (hours):
 

Eurasian Highway

Last reported at 2014-Apr-15 06:33 UTC. Time now 2014-Apr-24 04:06 UTC.
Position N 01°14' E 103°58'.
Warning: this ship's position is 8 days out of date.

Length 199 m; draft 8.9 m.

Type: Cargo ship. MMSI: 432839000.

NotesDate/timePositionNaut miles runAvg speedWind from/ knotsBaromVisibWave heightAir tempDewpointWater temp
2014-Apr-15 06:33N 01°14' E 103°58'1110.6
2014-Apr-15 05:34N 01°13' E 103°48'5 1.6
2014-Apr-15 02:34N 01°17' E 103°45'0 0.0
2014-Apr-15 01:34N 01°17' E 103°45'0 0.0
2014-Apr-15 00:34N 01°17' E 103°45'0 0.0
2014-Apr-14 23:34N 01°17' E 103°45'0 0.0
2014-Apr-14 22:34N 01°17' E 103°45'5 4.5
2014-Apr-14 21:33N 01°13' E 103°48'7 7.0
2014-Apr-14 20:33N 01°14' E 103°55'  
2014-Apr-09 18:33N 01°14' E 103°57'10 9.9
2014-Apr-09 17:33N 01°13' E 103°47'5 4.4
2014-Apr-09 16:31N 01°17' E 103°45'0 0.1
2014-Apr-09 15:31N 01°17' E 103°45'0 0.0
2014-Apr-09 14:31N 01°17' E 103°45'0 0.1
2014-Apr-09 13:25N 01°17' E 103°45'0 0.1
2014-Apr-09 12:31N 01°17' E 103°45'0 0.0
2014-Apr-09 11:31N 01°17' E 103°45'0 0.1
2014-Apr-09 10:31N 01°17' E 103°45'0 0.1
2014-Apr-09 09:31N 01°17' E 103°45'0 0.1
2014-Apr-09 08:31N 01°17' E 103°45'0 0.0
2014-Apr-09 07:31N 01°17' E 103°45'0 0.1
2014-Apr-09 06:31N 01°17' E 103°45'0 0.1
2014-Apr-09 05:33N 01°17' E 103°45'0 0.5
2014-Apr-09 04:33N 01°17' E 103°45'7 6.7
2014-Apr-09 03:34N 01°12' E 103°49'9 8.5
2014-Apr-09 02:27N 01°15' E 103°58'  

Dump ship's entire track history

sailing weather and tide predictions

Eurasian Highway — 7JKY — position and weather